Sumatra, Montana
Current Conditions -  °F | °C
As of 2:55 PM on Saturday 25 Oct 2014 (Local Time) from KMVH Reporting Station
Clear Clear  
Wind Chill: 64°   Ceiling: Unl
Heat Index: 64°   Visibility: 10mi
Dew Point: 36°   Wind: 17mph
Humidity: 34%   Direction: 210°SSW
Pressure: 29.84"   Gusts: NA
Location:  46.62°N, 107.55°W
Report Text: KMVH 252055Z AUTO 21015KT 10SM CLR 18/02 A2984 RMK A01
Loading
Personal Weather Stations






























Interactive Weather Map
Tropical Storm Tracking
New forecast layout! Learn more

10-Day Weather Forecast

Advertisements
Track Severe Weather on mobile